サンティアゴ の空港の天気 - METARとTAF

アルトゥーロ・メリノ・ベニテス国際空港(サンティアゴ) ( SCEL / SCL ) - チリ サンティアゴ
飛行場実況気象(Metar)
観測時間12/01 20:00 CLST (12/01 23:00 UTC)
風向・風速南南東 7m/s
視程10km以上
天気現象
少しの雲 雲底高度 5180m
全天の8割程度の雲 雲底高度 6100m
気温19℃
湿度56%
気圧1016hPa
METARSCEL 012300Z 15014KT 9999 FEW170 BKN200 19/10 Q1016 NOSIG
過去の天気等 Google飛行場航空写真 Wunderground天気予報

過去48時間のMETAR

飛行場予報(TAF)
発表時間: 12/01 13:00 CLST (12/01 16:00 UTC)
予報対象時間: 1日15時 CLST ~ 2日15時 CLST
風向・風速南南西 7m/s
視程10km以上
なし
1日16時 CLST ~ 1日18時 CLST に徐々に
風向・風速南南西 10m/s
1日16時 CLST ~ 1日22時 CLST に一時的に
全天の4割程度の雲 雲底高度 4570m
全天の8割程度の雲 雲底高度 6400m
1日22時 CLST ~ 1日24時 CLST に徐々に
風向・風速南南東 4m/s
2日5時 CLST ~ 2日7時 CLST に徐々に
風向・風速不定 1m/s
視程7000m
なし
2日10時 CLST ~ 2日12時 CLST に徐々に
風向・風速南 4m/s
TAF SCEL 011600Z 0118/0218 20013KT CAVOK TX30/0119Z TN11/0210Z
BECMG 0119/0121 21019KT
TEMPO 0119/0201 SCT150 BKN210
BECMG 0201/0203 15008KT
BECMG 0208/0210 VRB02KT 7000 NSC
BECMG 0213/0215 17008KT